Time;durP1;ratioP1;P1;durP2;ratioP2;P2;SDS_P1;SDS_P2;PMS_P1;PMS_P2;Temp;Humidity;BMP_temperature;BMP_pressure;BME280_temperature;BME280_humidity;BME280_pressure;Samples;Min_cycle;Max_cycle;Signal;HPM_P1;HPM_P2
2022/01/07 00:00:47;;;;;;;;;;;;;;;0.81;81.86;98840.14;1625810;88;20171;-75
2022/01/07 00:03:27;;;;;;;;;;;;;;;0.79;81.15;98832.30;1605642;88;20472;-75
2022/01/07 00:06:00;;;;;;;;;;;;;;;0.80;80.60;98839.33;1605361;88;20105;-74
2022/01/07 00:08:28;;;;;;;;;;;;;;;0.82;80.58;98848.52;1622846;88;22709;-75
2022/01/07 00:10:56;;;;;;;;;;;;;;;0.82;80.61;98852.57;1622463;88;20145;-77
2022/01/07 00:13:34;;;;;;;;;;;;;;;0.82;80.96;98859.33;1626572;88;20501;-77
2022/01/07 00:16:01;;;;;;;;;;;;;;;0.79;81.31;98853.11;1625715;88;20443;-76
2022/01/07 00:18:37;;;;;;;;;;;;;;;0.77;81.06;98860.67;1607737;88;20128;-76
2022/01/07 00:21:11;;;;;;;;;;;;;;;0.78;81.45;98850.13;1626522;88;21168;-76
2022/01/07 00:23:56;;;;;;;;;;;;;;;0.78;82.21;98862.29;1625614;88;20149;-76
2022/01/07 00:26:13;;;;;;;;;;;;;;;0.79;81.01;98865.27;1621990;88;20108;-77
2022/01/07 00:28:50;;;;;;;;;;;;;;;0.78;80.91;98873.91;1600463;88;20604;-75
2022/01/07 00:31:23;;;;;;;;;;;;;;;0.78;80.86;98871.75;1625983;88;20435;-76
2022/01/07 00:33:49;;;;;;;;;;;;;;;0.79;80.96;98872.02;1625988;88;21205;-76
2022/01/07 00:36:19;;;;;;;;;;;;;;;0.78;80.26;98879.31;1626607;88;20124;-76
2022/01/07 00:38:50;;;;;;;;;;;;;;;0.76;79.58;98872.02;1626614;88;20100;-76
2022/01/07 00:41:20;;;;;;;;;;;;;;;0.75;79.72;98874.45;1625811;88;20129;-77
2022/01/07 00:43:56;;;;;;;;;;;;;;;0.75;79.63;98880.39;1626199;88;20093;-75
2022/01/07 00:46:20;;;;;;;;;;;;;;;0.73;79.34;98864.44;1625271;88;21167;-75
2022/01/07 00:48:47;;;;;;;;;;;;;;;0.73;80.09;98869.84;1626064;88;20447;-75
2022/01/07 00:51:15;;;;;;;;;;;;;;;0.73;79.97;98860.93;1626608;88;20129;-75
2022/01/07 00:53:44;;;;;;;;;;;;;;;0.71;80.33;98858.50;1624196;88;20128;-75
2022/01/07 00:56:10;;;;;;;;;;;;;;;0.66;80.85;98864.70;1626536;88;20306;-75
2022/01/07 00:58:40;;;;;;;;;;;;;;;0.62;81.32;98873.61;1606069;88;20137;-75
2022/01/07 01:01:09;;;;;;;;;;;;;;;0.56;81.38;98874.70;1626615;88;20451;-75
2022/01/07 01:03:41;;;;;;;;;;;;;;;0.48;81.49;98871.98;1626545;88;20125;-74
2022/01/07 01:06:14;;;;;;;;;;;;;;;0.43;82.04;98881.95;1620855;88;20096;-74
2022/01/07 01:08:42;;;;;;;;;;;;;;;0.38;81.67;98884.64;1626112;87;20464;-74
2022/01/07 01:11:13;;;;;;;;;;;;;;;0.35;81.69;98894.08;1606277;88;20116;-74
2022/01/07 01:13:46;;;;;;;;;;;;;;;0.35;81.58;98909.47;1625806;88;20152;-74
2022/01/07 01:16:24;;;;;;;;;;;;;;;0.33;80.82;98905.14;1625797;88;20093;-74
2022/01/07 01:18:54;;;;;;;;;;;;;;;0.32;79.82;98916.21;1606824;88;20121;-74
2022/01/07 01:21:29;;;;;;;;;;;;;;;0.32;79.79;98917.56;1626834;87;20109;-74
2022/01/07 01:23:57;;;;;;;;;;;;;;;0.30;80.23;98916.47;1626264;88;20455;-74
2022/01/07 01:26:30;;;;;;;;;;;;;;;0.28;79.57;98915.92;1626655;88;20221;-75
2022/01/07 01:28:56;;;;;;;;;;;;;;;0.26;79.78;98924.83;1626429;88;20121;-75
2022/01/07 01:31:30;;;;;;;;;;;;;;;0.24;80.35;98916.72;1605528;88;20435;-74
2022/01/07 01:34:03;;;;;;;;;;;;;;;0.22;80.28;98921.03;1626539;88;20177;-74
2022/01/07 01:36:31;;;;;;;;;;;;;;;0.20;80.57;98929.11;1625829;88;21840;-75
2022/01/07 01:38:59;;;;;;;;;;;;;;;0.16;81.05;98934.23;1626463;88;20092;-75
2022/01/07 01:41:27;;;;;;;;;;;;;;;0.12;81.19;98941.22;1621684;88;20093;-75
2022/01/07 01:43:55;;;;;;;;;;;;;;;0.08;81.23;98950.11;1605666;88;20104;-77
2022/01/07 01:46:27;;;;;;;;;;;;;;;0.04;81.62;98949.81;1626480;88;20092;-77
2022/01/07 01:49:04;;;;;;;;;;;;;;;0.02;81.89;98955.20;1605803;88;20743;-77
2022/01/07 01:51:36;;;;;;;;;;;;;;;-0.02;82.02;98951.70;1626032;87;20152;-76
2022/01/07 01:54:02;;;;;;;;;;;;;;;-0.06;82.06;98960.04;1604419;88;20084;-77
2022/01/07 01:56:36;;;;;;;;;;;;;;;-0.07;82.29;98961.66;1625494;88;20447;-77
2022/01/07 01:59:04;;;;;;;;;;;;;;;-0.10;82.55;98962.98;1625862;88;20120;-79
2022/01/07 02:01:35;;;;;;;;;;;;;;;-0.11;82.66;98955.15;1606341;88;20128;-79
2022/01/07 02:04:06;;;;;;;;;;;;;;;-0.14;82.61;98948.39;1626533;88;20446;-79
2022/01/07 02:06:36;;;;;;;;;;;;;;;-0.16;83.13;98958.63;1626252;88;20133;-79
2022/01/07 02:09:05;;;;;;;;;;;;;;;-0.14;82.83;98962.41;1626248;88;20601;-79
2022/01/07 02:11:38;;;;;;;;;;;;;;;-0.16;82.85;98968.07;1585233;88;20408;-79
2022/01/07 02:14:09;;;;;;;;;;;;;;;-0.18;82.83;98967.52;1626688;88;21988;-75
2022/01/07 02:16:40;;;;;;;;;;;;;;;-0.19;83.04;98964.54;1602759;88;20117;-74
2022/01/07 02:19:11;;;;;;;;;;;;;;;-0.21;83.10;98967.22;1626258;88;20110;-74
2022/01/07 02:21:40;;;;;;;;;;;;;;;-0.22;83.23;98962.90;1626499;88;20664;-75
2022/01/07 02:24:14;;;;;;;;;;;;;;;-0.23;84.25;98968.02;1626879;88;20129;-74
2022/01/07 02:26:47;;;;;;;;;;;;;;;-0.24;83.58;98971.25;1622690;88;21187;-76
2022/01/07 02:29:22;;;;;;;;;;;;;;;-0.26;83.54;98980.14;1625323;88;20157;-74
2022/01/07 02:31:53;;;;;;;;;;;;;;;-0.30;83.76;98979.03;1625703;88;20147;-77
2022/01/07 02:34:35;;;;;;;;;;;;;;;-0.30;83.77;98990.35;1625490;88;20109;-77
2022/01/07 02:37:06;;;;;;;;;;;;;;;-0.32;84.07;98983.05;1620324;88;20136;-77
2022/01/07 02:39:25;;;;;;;;;;;;;;;-0.35;84.17;98991.94;1622391;88;23296;-77
2022/01/07 02:42:04;;;;;;;;;;;;;;;-0.34;84.69;98986.01;1605239;88;20124;-77
2022/01/07 02:44:31;;;;;;;;;;;;;;;-0.37;84.48;98995.43;1625361;88;20416;-77
2022/01/07 02:47:01;;;;;;;;;;;;;;;-0.39;84.66;98999.45;1625924;88;20092;-75
2022/01/07 02:49:29;;;;;;;;;;;;;;;-0.39;85.22;99007.01;1621036;88;20093;-74
2022/01/07 02:52:02;;;;;;;;;;;;;;;-0.40;85.25;99003.22;1625720;88;21177;-74
2022/01/07 02:54:33;;;;;;;;;;;;;;;-0.43;85.61;99000.50;1625926;88;20133;-74
2022/01/07 02:57:04;;;;;;;;;;;;;;;-0.44;85.93;99020.45;1626191;88;20148;-74
2022/01/07 02:59:31;;;;;;;;;;;;;;;-0.45;86.47;99026.91;1625598;88;20160;-75
2022/01/07 03:01:57;;;;;;;;;;;;;;;-0.45;86.76;99036.34;1626606;88;20117;-74
2022/01/07 03:04:27;;;;;;;;;;;;;;;-0.48;87.08;99051.69;1605058;88;20125;-74
2022/01/07 03:07:00;;;;;;;;;;;;;;;-0.51;88.57;99048.69;1605954;88;20121;-75
2022/01/07 03:09:29;;;;;;;;;;;;;;;-0.57;89.26;99046.48;1625868;88;20081;-75
2022/01/07 03:11:57;;;;;;;;;;;;;;;-0.64;90.21;99061.27;1622506;88;20178;-76
2022/01/07 03:14:32;;;;;;;;;;;;;;;-0.72;90.65;99059.84;1607207;88;20185;-78
2022/01/07 03:17:03;;;;;;;;;;;;;;;-0.76;91.86;99062.22;1622560;88;20109;-78
2022/01/07 03:19:33;;;;;;;;;;;;;;;-0.81;92.96;99076.99;1626702;88;20112;-77
2022/01/07 03:22:06;;;;;;;;;;;;;;;-0.86;93.42;99075.59;1606578;88;20446;-76
2022/01/07 03:24:42;;;;;;;;;;;;;;;-0.91;93.97;99078.23;1626664;88;20092;-75
2022/01/07 03:27:17;;;;;;;;;;;;;;;-0.93;94.41;99082.23;1626702;88;20137;-76
2022/01/07 03:29:45;;;;;;;;;;;;;;;-0.95;94.75;99091.92;1626620;88;21175;-75
2022/01/07 03:32:14;;;;;;;;;;;;;;;-1.00;95.10;99091.86;1606297;88;20104;-78
2022/01/07 03:34:44;;;;;;;;;;;;;;;-1.05;95.72;99106.62;1626664;88;20145;-77
2022/01/07 03:37:20;;;;;;;;;;;;;;;-1.09;95.80;99105.48;1605616;88;20443;-78
2022/01/07 03:39:47;;;;;;;;;;;;;;;-1.15;96.28;99104.61;1625840;88;20125;-77
2022/01/07 03:42:22;;;;;;;;;;;;;;;-1.20;97.24;99110.49;1622031;88;21198;-78
2022/01/07 03:44:49;;;;;;;;;;;;;;;-1.23;97.39;99108.30;1625448;87;20092;-77
2022/01/07 03:47:20;;;;;;;;;;;;;;;-1.25;97.47;99119.84;1625479;88;20097;-77
2022/01/07 03:49:51;;;;;;;;;;;;;;;-1.27;97.57;99116.06;1626753;88;20108;-77
2022/01/07 03:52:22;;;;;;;;;;;;;;;-1.27;97.98;99116.06;1620940;88;20116;-77
2022/01/07 03:54:50;;;;;;;;;;;;;;;-1.28;98.24;99117.13;1626579;88;21175;-76
2022/01/07 03:57:18;;;;;;;;;;;;;;;-1.30;98.46;99121.12;1626517;88;20105;-76
2022/01/07 03:59:55;;;;;;;;;;;;;;;-1.32;98.62;99133.50;1604880;88;20108;-76
2022/01/07 04:02:22;;;;;;;;;;;;;;;-1.36;99.07;99132.36;1625744;88;20919;-76
2022/01/07 04:04:52;;;;;;;;;;;;;;;-1.39;99.33;99135.02;1625547;88;20092;-77
2022/01/07 04:07:25;;;;;;;;;;;;;;;-1.40;99.87;99150.89;1626763;87;21082;-77
2022/01/07 04:09:53;;;;;;;;;;;;;;;-1.40;100.00;99143.34;1618639;87;20439;-75
2022/01/07 04:12:25;;;;;;;;;;;;;;;-1.41;99.80;99147.91;1653060;86;20090;-73
2022/01/07 04:15:08;;;;;;;;;;;;;;;-1.42;100.00;99153.55;1652634;86;21071;-74
2022/01/07 04:17:24;;;;;;;;;;;;;;;-1.43;100.00;99154.07;1627821;87;20421;-76
2022/01/07 04:19:53;;;;;;;;;;;;;;;-1.45;99.85;99157.55;1653162;87;21150;-74
2022/01/07 04:22:33;;;;;;;;;;;;;;;-1.45;99.94;99162.93;1653331;86;20109;-75
2022/01/07 04:25:05;;;;;;;;;;;;;;;-1.41;100.00;99165.94;1652474;87;20103;-74
2022/01/07 04:27:41;;;;;;;;;;;;;;;-1.40;99.75;99158.97;1653265;86;20114;-74
2022/01/07 04:30:13;;;;;;;;;;;;;;;-1.41;99.15;99164.59;1652611;86;20106;-73
2022/01/07 04:32:54;;;;;;;;;;;;;;;-1.41;99.18;99168.11;1631549;87;20102;-74
2022/01/07 04:35:13;;;;;;;;;;;;;;;-1.41;98.51;99167.29;1649504;86;20139;-76
2022/01/07 04:37:43;;;;;;;;;;;;;;;-1.43;97.84;99168.06;1632104;87;20437;-79
2022/01/07 04:40:13;;;;;;;;;;;;;;;-1.45;97.52;99168.84;1631751;87;20125;-74
2022/01/07 04:42:42;;;;;;;;;;;;;;;-1.45;97.74;99173.70;1653459;86;20102;-74
2022/01/07 04:45:17;;;;;;;;;;;;;;;-1.47;96.93;99183.90;1653205;87;21148;-79
2022/01/07 04:47:42;;;;;;;;;;;;;;;-1.48;96.91;99184.95;1652268;86;20102;-76
2022/01/07 04:50:15;;;;;;;;;;;;;;;-1.48;97.04;99193.03;1652502;86;20090;-74
2022/01/07 04:52:44;;;;;;;;;;;;;;;-1.46;96.33;99184.19;1647091;86;20106;-75
2022/01/07 04:55:15;;;;;;;;;;;;;;;-1.40;96.63;99183.20;1640991;86;20444;-75
2022/01/07 04:57:42;;;;;;;;;;;;;;;-1.36;96.04;99201.02;1642955;87;21169;-74
2022/01/07 05:00:12;;;;;;;;;;;;;;;-1.34;95.75;99208.33;1640369;87;20429;-74
2022/01/07 05:02:41;;;;;;;;;;;;;;;-1.32;95.00;99216.97;1649924;87;20117;-74
2022/01/07 05:05:11;;;;;;;;;;;;;;;-1.30;94.96;99222.11;1637995;87;20621;-73
2022/01/07 05:07:49;;;;;;;;;;;;;;;-1.28;95.10;99217.30;1631723;87;20148;-77
2022/01/07 05:10:16;;;;;;;;;;;;;;;-1.26;93.93;99229.98;1651914;87;20185;-75
2022/01/07 05:12:46;;;;;;;;;;;;;;;-1.26;93.78;99229.45;1651951;87;20528;-75
2022/01/07 05:15:17;;;;;;;;;;;;;;;-1.26;94.25;99225.95;1653212;86;20425;-75
2022/01/07 05:17:46;;;;;;;;;;;;;;;-1.26;93.71;99234.84;1653361;86;20417;-75
2022/01/07 05:20:21;;;;;;;;;;;;;;;-1.27;93.40;99225.13;1631830;87;20175;-75
2022/01/07 05:22:48;;;;;;;;;;;;;;;-1.29;93.47;99246.64;1652637;86;21168;-75
2022/01/07 05:25:17;;;;;;;;;;;;;;;-1.30;93.42;99247.17;1653151;87;20102;-75
2022/01/07 05:27:43;;;;;;;;;;;;;;;-1.30;93.65;99259.81;1653024;86;20441;-76
2022/01/07 05:30:12;;;;;;;;;;;;;;;-1.31;93.79;99249.58;1631931;87;20426;-76
2022/01/07 05:32:46;;;;;;;;;;;;;;;-1.34;94.11;99260.31;1653083;86;20090;-76
2022/01/07 05:35:13;;;;;;;;;;;;;;;-1.32;93.79;99262.75;1630572;87;20090;-74
2022/01/07 05:37:43;;;;;;;;;;;;;;;-1.32;93.60;99259.25;1652660;86;20430;-73
2022/01/07 05:40:13;;;;;;;;;;;;;;;-1.34;93.62;99264.88;1646901;86;20138;-73
2022/01/07 05:42:46;;;;;;;;;;;;;;;-1.34;94.05;99257.61;1653068;87;20114;-73
2022/01/07 05:45:12;;;;;;;;;;;;;;;-1.35;93.91;99279.41;1653114;87;20465;-74
2022/01/07 05:47:53;;;;;;;;;;;;;;;-1.37;94.39;99293.11;1631899;87;20130;-74
2022/01/07 05:50:13;;;;;;;;;;;;;;;-1.39;94.81;99293.88;1650939;86;20437;-76
2022/01/07 05:52:51;;;;;;;;;;;;;;;-1.40;94.75;99295.47;1653354;87;20458;-76
2022/01/07 05:55:20;;;;;;;;;;;;;;;-1.41;94.90;99303.27;1631848;87;20449;-76
2022/01/07 05:57:49;;;;;;;;;;;;;;;-1.43;95.45;99316.97;1653241;87;20122;-76
2022/01/07 06:00:21;;;;;;;;;;;;;;;-1.45;95.78;99307.50;1653220;87;21210;-76
2022/01/07 06:02:48;;;;;;;;;;;;;;;-1.49;96.05;99317.94;1652943;87;20445;-75
2022/01/07 06:05:20;;;;;;;;;;;;;;;-1.50;96.29;99322.22;1652238;86;20091;-74
2022/01/07 06:07:57;;;;;;;;;;;;;;;-1.52;97.08;99335.92;1631867;87;20126;-76
2022/01/07 06:10:26;;;;;;;;;;;;;;;-1.52;96.99;99322.99;1653141;85;20488;-76
2022/01/07 06:12:57;;;;;;;;;;;;;;;-1.53;96.93;99354.48;1652995;86;22073;-76
2022/01/07 06:15:24;;;;;;;;;;;;;;;-1.53;97.57;99361.21;1649630;85;20102;-76
2022/01/07 06:18:02;;;;;;;;;;;;;;;-1.49;97.52;99363.71;1653351;87;20106;-76
2022/01/07 06:20:43;;;;;;;;;;;;;;;-1.45;97.31;99367.55;1652372;86;20461;-76
2022/01/07 06:23:03;;;;;;;;;;;;;;;-1.42;97.11;99368.42;1651013;87;20175;-76
2022/01/07 06:25:32;;;;;;;;;;;;;;;-1.38;97.92;99378.17;1652238;86;21772;-76
2022/01/07 06:28:04;;;;;;;;;;;;;;;-1.34;97.03;99388.22;1653008;85;20166;-76
2022/01/07 06:30:33;;;;;;;;;;;;;;;-1.32;96.75;99390.67;1650639;86;20178;-76
2022/01/07 06:32:59;;;;;;;;;;;;;;;-1.31;96.88;99395.53;1645475;86;20698;-77
2022/01/07 06:35:31;;;;;;;;;;;;;;;-1.28;96.87;99395.87;1612457;88;20104;-77
2022/01/07 06:38:07;;;;;;;;;;;;;;;-1.25;96.83;99398.60;1626508;88;22335;-76
2022/01/07 06:40:37;;;;;;;;;;;;;;;-1.23;96.81;99412.64;1606178;88;20152;-76
2022/01/07 06:43:07;;;;;;;;;;;;;;;-1.19;97.24;99416.49;1606472;87;20160;-75
2022/01/07 06:45:39;;;;;;;;;;;;;;;-1.14;97.40;99420.59;1635694;86;20125;-75
2022/01/07 06:48:12;;;;;;;;;;;;;;;-1.12;96.76;99427.38;1605450;88;20155;-74
2022/01/07 06:50:42;;;;;;;;;;;;;;;-1.11;96.64;99429.53;1605897;88;20092;-74
2022/01/07 06:53:14;;;;;;;;;;;;;;;-1.10;96.59;99431.98;1625415;87;20138;-73
2022/01/07 06:55:44;;;;;;;;;;;;;;;-1.10;94.90;99441.42;1635838;87;20450;-74
2022/01/07 06:58:14;;;;;;;;;;;;;;;-1.11;93.14;99446.52;1625424;87;20151;-74
2022/01/07 07:00:45;;;;;;;;;;;;;;;-1.10;88.50;99445.98;1628846;86;20157;-76
2022/01/07 07:03:10;;;;;;;;;;;;;;;-1.12;87.23;99451.62;1625924;88;21183;-74
2022/01/07 07:05:41;;;;;;;;;;;;;;;-1.12;86.19;99468.31;1626529;87;20125;-74
2022/01/07 07:08:11;;;;;;;;;;;;;;;-1.10;86.96;99471.05;1606859;88;20446;-73
2022/01/07 07:10:39;;;;;;;;;;;;;;;-1.07;86.88;99472.45;1636330;87;20111;-73
2022/01/07 07:13:16;;;;;;;;;;;;;;;-1.07;84.52;99479.19;1631522;86;20133;-73
2022/01/07 07:15:52;;;;;;;;;;;;;;;-1.08;81.51;99497.75;1626478;88;21154;-73
2022/01/07 07:18:27;;;;;;;;;;;;;;;-1.04;78.32;99497.03;1625088;87;20166;-76
2022/01/07 07:20:55;;;;;;;;;;;;;;;-0.96;77.07;99489.09;1643104;86;20136;-79
2022/01/07 07:23:24;;;;;;;;;;;;;;;-0.94;77.21;99506.36;1639046;86;20842;-78
2022/01/07 07:25:51;;;;;;;;;;;;;;;-0.99;76.49;99507.09;1642251;86;20122;-76
2022/01/07 07:28:27;;;;;;;;;;;;;;;-1.07;75.78;99510.98;1653212;85;21795;-83
2022/01/07 07:30:59;;;;;;;;;;;;;;;-1.12;76.44;99514.11;1652306;86;20149;-83
2022/01/07 07:38:53;;;;;;;;;;;;;;;-0.31;71.67;99530.89;1644770;87;20153;-78
2022/01/07 07:41:17;;;;;;;;;;;;;;;0.07;71.26;99509.87;1637674;86;21171;-79
2022/01/07 07:43:54;;;;;;;;;;;;;;;0.54;70.68;99522.40;1624936;87;20099;-76
2022/01/07 07:46:32;;;;;;;;;;;;;;;1.08;68.24;99523.83;1619458;85;20294;-82
2022/01/07 07:49:03;;;;;;;;;;;;;;;1.45;67.17;99530.13;1638466;86;20175;-81
2022/01/07 07:51:34;;;;;;;;;;;;;;;1.70;63.54;99549.84;1648266;85;20162;-78
2022/01/07 07:54:00;;;;;;;;;;;;;;;1.72;62.42;99542.81;1597041;86;21187;-80
2022/01/07 07:56:29;;;;;;;;;;;;;;;1.92;63.83;99558.66;1632241;85;20406;-78
2022/01/07 07:58:58;;;;;;;;;;;;;;;2.10;58.84;99557.44;1621160;87;20145;-78
2022/01/07 08:01:26;;;;;;;;;;;;;;;2.20;59.59;99564.83;1624317;86;20150;-79
2022/01/07 08:03:54;;;;;;;;;;;;;;;2.33;57.81;99568.41;1627978;85;20224;-77
2022/01/07 08:06:20;;;;;;;;;;;;;;;2.34;57.44;99574.11;1627398;87;21128;-77
2022/01/07 08:08:51;;;;;;;;;;;;;;;2.30;55.10;99586.56;1652730;84;20186;-80
2022/01/07 08:11:27;;;;;;;;;;;;;;;2.28;55.24;99584.66;1643373;85;20433;-79
2022/01/07 08:16:41;;;;;;;;;;;;;;;2.45;54.81;99594.77;1630068;86;20164;-78
2022/01/07 08:19:07;;;;;;;;;;;;;;;2.50;55.19;99605.64;1658936;85;21158;-78
2022/01/07 08:21:45;;;;;;;;;;;;;;;2.58;55.08;99605.69;1608613;86;20207;-79
2022/01/07 08:24:14;;;;;;;;;;;;;;;2.74;55.37;99612.02;1634415;85;20132;-78
2022/01/07 08:26:48;;;;;;;;;;;;;;;2.82;55.51;99603.39;1652483;85;20174;-79
2022/01/07 08:29:13;;;;;;;;;;;;;;;2.84;56.06;99611.54;1640243;86;20214;-75
2022/01/07 08:37:01;;;;;;;;;;;;;;;1.97;58.30;99618.80;1667100;84;20195;-74
2022/01/07 08:39:30;;;;;;;;;;;;;;;1.33;60.63;99629.55;1662591;85;20882;-74
2022/01/07 08:42:00;;;;;;;;;;;;;;;0.94;63.02;99620.71;1635760;85;20170;-79
2022/01/07 08:44:29;;;;;;;;;;;;;;;0.71;64.79;99633.91;1651232;86;21636;-78
2022/01/07 08:47:01;;;;;;;;;;;;;;;0.52;65.83;99644.20;1642469;85;20152;-76
2022/01/07 08:49:33;;;;;;;;;;;;;;;0.27;67.21;99635.71;1655593;84;20433;-75
2022/01/07 08:52:01;;;;;;;;;;;;;;;0.27;67.39;99655.96;1655000;84;20145;-78
2022/01/07 08:54:32;;;;;;;;;;;;;;;0.21;67.13;99657.77;1646273;85;20196;-76
2022/01/07 08:56:58;;;;;;;;;;;;;;;0.13;68.42;99648.72;1640664;84;21102;-82
2022/01/07 08:59:28;;;;;;;;;;;;;;;0.11;68.96;99664.88;1640000;86;20204;-79
2022/01/07 09:01:57;;;;;;;;;;;;;;;0.04;69.25;99666.91;1645635;84;20159;-75
2022/01/07 09:04:26;;;;;;;;;;;;;;;-0.13;68.78;99669.61;1674885;84;20176;-79
2022/01/07 09:07:04;;;;;;;;;;;;;;;-0.30;70.20;99670.11;1625344;85;20466;-71
2022/01/07 09:09:31;;;;;;;;;;;;;;;-0.42;69.05;99663.41;1650926;85;21111;-74
2022/01/07 09:12:00;;;;;;;;;;;;;;;-0.53;69.46;99684.50;1653574;86;20124;-82
2022/01/07 09:14:32;;;;;;;;;;;;;;;-0.59;69.64;99676.05;1651438;86;20096;-74
2022/01/07 09:17:07;;;;;;;;;;;;;;;-0.64;69.84;99686.73;1637787;86;20136;-74
2022/01/07 09:19:33;;;;;;;;;;;;;;;-0.71;69.17;99678.78;1640423;86;20188;-70
2022/01/07 09:22:02;;;;;;;;;;;;;;;-0.72;69.76;99690.63;1648026;86;21105;-71
2022/01/07 09:24:29;;;;;;;;;;;;;;;-0.70;68.73;99677.72;1649421;86;20189;-75
2022/01/07 09:26:58;;;;;;;;;;;;;;;-0.48;66.97;99692.16;1652295;86;20447;-76
2022/01/07 09:29:24;;;;;;;;;;;;;;;-0.39;65.61;99698.00;1652918;85;20096;-81
2022/01/07 09:31:51;;;;;;;;;;;;;;;-0.37;67.01;99689.13;1654650;86;20104;-78
2022/01/07 09:34:18;;;;;;;;;;;;;;;-0.12;66.32;99703.63;1653187;82;21067;-77
2022/01/07 09:36:44;;;;;;;;;;;;;;;0.57;64.67;99697.49;1654756;85;20426;-77
2022/01/07 09:39:10;;;;;;;;;;;;;;;1.44;61.39;99696.75;1648839;86;20096;-75
2022/01/07 09:41:37;;;;;;;;;;;;;;;2.04;60.58;99701.18;1651445;86;20100;-81
2022/01/07 09:44:04;;;;;;;;;;;;;;;2.50;60.60;99705.09;1652764;86;20107;-75
2022/01/07 09:46:31;;;;;;;;;;;;;;;3.05;54.60;99707.89;1632645;86;22238;-75
2022/01/07 09:48:57;;;;;;;;;;;;;;;3.23;52.55;99698.77;1648820;86;20097;-73
2022/01/07 09:51:26;;;;;;;;;;;;;;;3.13;51.45;99696.55;1648405;86;20098;-80
2022/01/07 09:53:52;;;;;;;;;;;;;;;2.90;52.37;99700.47;1650490;86;20405;-79
2022/01/07 09:56:19;;;;;;;;;;;;;;;2.49;51.38;99693.43;1653412;86;20087;-76
2022/01/07 09:58:46;;;;;;;;;;;;;;;2.41;53.42;99692.55;1650892;86;21130;-82
2022/01/07 10:01:19;;;;;;;;;;;;;;;2.74;50.77;99702.83;1639179;85;20105;-80
2022/01/07 10:03:44;;;;;;;;;;;;;;;2.90;50.31;99708.07;1653489;85;20114;-77
2022/01/07 10:06:24;;;;;;;;;;;;;;;2.91;49.73;99702.11;1652705;86;20384;-81
2022/01/07 10:09:03;;;;;;;;;;;;;;;3.06;50.83;99691.89;1653387;85;20232;-78
2022/01/07 10:11:29;;;;;;;;;;;;;;;3.30;50.56;99704.78;1636846;86;21133;-71
2022/01/07 10:14:20;;;;;;;;;;;;;;;3.74;51.77;99694.88;1652693;86;20122;-73
2022/01/07 10:16:55;;;;;;;;;;;;;;;3.97;51.46;99697.12;1650677;86;20130;-71
2022/01/07 10:19:34;;;;;;;;;;;;;;;3.75;49.70;99701.95;1649817;85;20410;-73
2022/01/07 10:22:07;;;;;;;;;;;;;;;3.40;50.36;99705.91;1658755;84;20121;-74
2022/01/07 10:24:55;;;;;;;;;;;;;;;3.20;50.39;99714.22;1656458;85;21163;-77
2022/01/07 10:27:25;;;;;;;;;;;;;;;3.19;50.87;99715.30;1672086;84;20436;-81
2022/01/07 10:29:51;;;;;;;;;;;;;;;3.28;50.71;99723.22;1680531;84;20520;-70
2022/01/07 10:32:24;;;;;;;;;;;;;;;3.47;50.19;99714.59;1658307;84;20227;-70
2022/01/07 10:35:04;;;;;;;;;;;;;;;3.51;51.07;99717.88;1655539;84;20463;-70
2022/01/07 10:37:30;;;;;;;;;;;;;;;3.63;49.33;99723.08;1662144;84;21119;-69
2022/01/07 10:39:57;;;;;;;;;;;;;;;3.73;49.04;99727.19;1680608;84;20160;-69
2022/01/07 10:42:25;;;;;;;;;;;;;;;3.88;47.86;99725.89;1658381;85;20441;-68
2022/01/07 10:45:02;;;;;;;;;;;;;;;4.09;47.99;99727.27;1681442;85;20612;-69
2022/01/07 10:47:29;;;;;;;;;;;;;;;3.93;45.61;99735.41;1641773;86;20200;-69
2022/01/07 10:50:14;;;;;;;;;;;;;;;3.88;45.83;99739.47;1635376;86;21111;-70
2022/01/07 10:52:41;;;;;;;;;;;;;;;3.90;46.73;99738.66;1651796;85;20146;-70
2022/01/07 10:55:13;;;;;;;;;;;;;;;4.16;46.93;99744.13;1650476;85;20155;-71
2022/01/07 10:57:41;;;;;;;;;;;;;;;4.46;46.93;99744.17;1644360;86;20614;-71
2022/01/07 11:00:10;;;;;;;;;;;;;;;4.54;45.21;99744.19;1647346;85;20198;-69
2022/01/07 11:02:37;;;;;;;;;;;;;;;4.12;44.60;99746.56;1629730;85;21186;-68
2022/01/07 11:05:04;;;;;;;;;;;;;;;3.95;44.73;99740.03;1634359;86;21623;-72
2022/01/07 11:07:30;;;;;;;;;;;;;;;4.01;44.39;99749.02;1640463;85;20428;-70
2022/01/07 11:09:57;;;;;;;;;;;;;;;4.11;44.39;99754.98;1638376;86;20649;-70
2022/01/07 11:12:25;;;;;;;;;;;;;;;4.29;44.52;99760.73;1634687;85;20251;-73
2022/01/07 11:14:51;;;;;;;;;;;;;;;4.56;43.26;99764.58;1622434;84;21161;-72
2022/01/07 11:17:21;;;;;;;;;;;;;;;4.67;43.92;99755.85;1636424;86;20162;-70
2022/01/07 11:19:52;;;;;;;;;;;;;;;4.90;42.63;99759.94;1634635;85;20480;-71
2022/01/07 11:22:19;;;;;;;;;;;;;;;4.91;42.79;99758.84;1642037;85;20267;-71
2022/01/07 11:24:50;;;;;;;;;;;;;;;4.85;43.08;99760.75;1641811;85;20200;-70
2022/01/07 11:27:25;;;;;;;;;;;;;;;4.93;43.79;99763.47;1641437;84;21877;-71
2022/01/07 11:30:08;;;;;;;;;;;;;;;5.13;42.83;99766.17;1636338;85;20191;-72
2022/01/07 11:32:45;;;;;;;;;;;;;;;5.31;43.07;99762.03;1648425;86;20099;-70
2022/01/07 11:35:23;;;;;;;;;;;;;;;5.00;42.48;99751.77;1633746;86;20210;-71
2022/01/07 11:37:53;;;;;;;;;;;;;;;4.03;42.71;99763.69;1642752;85;20209;-71
2022/01/07 11:40:32;;;;;;;;;;;;;;;2.76;45.18;99759.78;1624390;86;21159;-72
2022/01/07 11:43:08;;;;;;;;;;;;;;;2.20;46.35;99767.97;1644531;83;20231;-71
2022/01/07 11:45:38;;;;;;;;;;;;;;;2.03;47.62;99750.99;1667578;85;20207;-71
2022/01/07 11:48:27;;;;;;;;;;;;;;;1.86;48.78;99774.09;1668585;85;20154;-72
2022/01/07 11:51:00;;;;;;;;;;;;;;;2.06;49.24;99776.20;1653187;85;20268;-73
2022/01/07 11:53:42;;;;;;;;;;;;;;;2.44;50.11;99774.68;1632827;86;21080;-71
2022/01/07 11:56:18;;;;;;;;;;;;;;;2.96;48.78;99768.58;1625474;87;20178;-72
2022/01/07 11:59:09;;;;;;;;;;;;;;;3.57;48.69;99764.86;1630026;86;20163;-79
2022/01/07 12:01:40;;;;;;;;;;;;;;;4.20;47.15;99760.17;1620011;86;20158;-73
2022/01/07 12:04:23;;;;;;;;;;;;;;;4.91;45.05;99752.05;1584163;89;20199;-73
2022/01/07 12:06:50;;;;;;;;;;;;;;;5.30;43.32;99759.85;1589660;88;21264;-77
2022/01/07 12:09:21;;;;;;;;;;;;;;;5.41;42.86;99759.83;1582140;89;20197;-75
2022/01/07 12:12:00;;;;;;;;;;;;;;;5.11;41.04;99757.47;1578990;88;20138;-81
2022/01/07 12:14:30;;;;;;;;;;;;;;;4.96;41.19;99769.72;1591502;89;21370;-76
2022/01/07 12:16:59;;;;;;;;;;;;;;;5.00;41.56;99761.83;1584745;88;20502;-75
2022/01/07 12:19:38;;;;;;;;;;;;;;;5.15;41.18;99774.06;1559175;90;21186;-74
2022/01/07 12:22:08;;;;;;;;;;;;;;;5.26;40.53;99765.58;1600315;86;20126;-73
2022/01/07 12:24:35;;;;;;;;;;;;;;;5.32;41.50;99777.27;1617385;87;20156;-70
2022/01/07 12:27:05;;;;;;;;;;;;;;;5.60;41.48;99776.66;1629700;86;20362;-76
2022/01/07 12:29:31;;;;;;;;;;;;;;;5.80;41.35;99777.10;1625215;87;20214;-76
2022/01/07 12:31:58;;;;;;;;;;;;;;;5.93;39.64;99774.36;1618666;86;21814;-81
2022/01/07 12:34:25;;;;;;;;;;;;;;;5.96;39.48;99763.72;1633663;86;20119;-80
2022/01/07 12:36:57;;;;;;;;;;;;;;;6.01;40.00;99777.86;1625539;87;20164;-78
2022/01/07 12:39:28;;;;;;;;;;;;;;;5.94;39.00;99780.89;1627209;88;20224;-76
2022/01/07 12:41:55;;;;;;;;;;;;;;;5.84;39.59;99782.81;1636500;86;20179;-77
2022/01/07 12:44:21;;;;;;;;;;;;;;;5.94;40.39;99784.98;1628615;86;22148;-75
2022/01/07 12:46:52;;;;;;;;;;;;;;;5.95;38.70;99788.52;1628950;86;20172;-76
2022/01/07 12:49:19;;;;;;;;;;;;;;;5.82;40.01;99792.63;1620961;85;20442;-76
2022/01/07 12:52:00;;;;;;;;;;;;;;;5.89;39.93;99801.34;1592849;88;20368;-74
2022/01/07 12:54:26;;;;;;;;;;;;;;;5.93;40.14;99807.06;1600741;87;20501;-73
2022/01/07 12:56:53;;;;;;;;;;;;;;;5.86;39.07;99803.23;1621764;86;21199;-77
2022/01/07 12:59:20;;;;;;;;;;;;;;;5.91;39.62;99816.88;1590977;87;20208;-79
2022/01/07 13:01:48;;;;;;;;;;;;;;;5.92;39.33;99819.86;1601414;88;20126;-76
2022/01/07 13:04:16;;;;;;;;;;;;;;;5.99;40.27;99825.56;1604804;88;20150;-76
2022/01/07 13:06:53;;;;;;;;;;;;;;;5.96;39.40;99822.30;1595414;89;21109;-75
2022/01/07 13:09:30;;;;;;;;;;;;;;;5.80;39.65;99830.23;1595086;87;21595;-80
2022/01/07 13:11:58;;;;;;;;;;;;;;;5.73;41.10;99828.92;1597674;89;20151;-79
2022/01/07 13:14:27;;;;;;;;;;;;;;;5.73;40.60;99832.45;1600045;88;20245;-79
2022/01/07 13:16:57;;;;;;;;;;;;;;;5.69;40.74;99835.47;1602853;89;21004;-79
2022/01/07 13:19:24;;;;;;;;;;;;;;;5.78;40.75;99829.69;1592784;89;20217;-81
2022/01/07 13:21:51;;;;;;;;;;;;;;;5.55;41.33;99843.94;1579443;89;21128;-83
2022/01/07 13:24:22;;;;;;;;;;;;;;;4.93;40.83;99849.98;1563274;89;20548;-78